ICAO code: LHPR | IATA code: QGY | SITA: QGYAPXH | AFTN: LHPRZPZX

Időjárási adatok

METAR LHPR 242145Z AUTO 11005KT CAVOK 12/08 Q1014=
TAF LHPR 242000Z NIL=
Nem volt érdemleges időjárási jelenség az elmúlt órában
2022-09-24 21:40:00 UTC
Hőmérséklet
11.9 °C
 
Harmatpont
8.3 °C
 
Rel. páratartalom
78%
 
QNH
1014.2 hPa
 
Szélsebesség
2.3 m/s
Max
2.4 m/s
Szélirány
120°
 
Csapadék (1 óra)
0.0 mm
 
Látótávolság
20000 m
 
RVR
>1500 m RWY29
 
1. felhőréteg mennyisége
7 octa
 
1. felhőréteg alapja
3880 m